Adelaide, California
Current Conditions -  °F | °C
As of 12:53 PM on Sunday 23 Nov 2014 (Local Time) from KPRB Reporting Station
Clear Clear  
Wind Chill: 63°   Ceiling: Unl
Heat Index: 63°   Visibility: 10mi
Dew Point: 38°   Wind: 5mph
Humidity: 40%   Direction: 290°WNW
Pressure: 30.25"   Gusts: NA
Location:  35.6618°N, 120.707°W
Report Text: KPRB 232053Z AUTO 29004KT 10SM CLR 17/03 A3025 RMK AO2 SLP243 T01720033 58018 TSNO
Loading
Personal Weather Stations






























Interactive Weather Map New forecast layout! Learn more

10-Day Weather Forecast

Advertisements
Track Severe Weather on mobile